sensor_id;sensor_type;location;lat;lon;timestamp;pressure;altitude;pressure_sealevel;temperature;humidity
74893;BME280;63446;56.272;43.922;2023-01-15T00:01:02;102009.63;;;-2.92;64.79
74893;BME280;63446;56.272;43.922;2023-01-15T00:03:29;102007.72;;;-2.90;64.55
74893;BME280;63446;56.272;43.922;2023-01-15T00:05:55;102011.25;;;-2.91;64.60
74893;BME280;63446;56.272;43.922;2023-01-15T00:08:21;102009.91;;;-2.95;64.66
74893;BME280;63446;56.272;43.922;2023-01-15T00:10:48;102019.13;;;-2.92;64.63
74893;BME280;63446;56.272;43.922;2023-01-15T00:13:14;102017.50;;;-2.93;64.81
74893;BME280;63446;56.272;43.922;2023-01-15T00:15:40;102014.81;;;-2.92;64.66
74893;BME280;63446;56.272;43.922;2023-01-15T00:18:06;102003.63;;;-2.92;64.52
74893;BME280;63446;56.272;43.922;2023-01-15T00:20:31;101992.47;;;-2.93;64.62
74893;BME280;63446;56.272;43.922;2023-01-15T00:22:57;102005.53;;;-2.95;64.42
74893;BME280;63446;56.272;43.922;2023-01-15T00:25:23;102005.81;;;-2.98;64.58
74893;BME280;63446;56.272;43.922;2023-01-15T00:28:07;101996.56;;;-3.00;64.43
74893;BME280;63446;56.272;43.922;2023-01-15T00:30:33;101991.69;;;-3.03;64.53
74893;BME280;63446;56.272;43.922;2023-01-15T00:32:59;101997.78;;;-3.04;64.61
74893;BME280;63446;56.272;43.922;2023-01-15T00:35:25;102001.34;;;-3.05;64.54
74893;BME280;63446;56.272;43.922;2023-01-15T00:37:51;101998.47;;;-3.02;64.62
74893;BME280;63446;56.272;43.922;2023-01-15T00:40:18;101987.31;;;-3.03;64.53
74893;BME280;63446;56.272;43.922;2023-01-15T00:42:44;101995.75;;;-3.01;64.45
74893;BME280;63446;56.272;43.922;2023-01-15T00:45:10;101997.50;;;-3.01;64.51
74893;BME280;63446;56.272;43.922;2023-01-15T00:47:41;101977.63;;;-3.01;64.53
74893;BME280;63446;56.272;43.922;2023-01-15T00:50:10;101979.28;;;-3.00;64.34
74893;BME280;63446;56.272;43.922;2023-01-15T00:52:37;101975.06;;;-3.01;64.45
74893;BME280;63446;56.272;43.922;2023-01-15T00:55:05;101980.22;;;-3.01;64.37
74893;BME280;63446;56.272;43.922;2023-01-15T00:57:31;101981.88;;;-3.00;64.44
74893;BME280;63446;56.272;43.922;2023-01-15T00:59:57;101976.69;;;-3.00;64.43
74893;BME280;63446;56.272;43.922;2023-01-15T01:02:23;101980.22;;;-3.01;64.26
74893;BME280;63446;56.272;43.922;2023-01-15T01:04:48;101980.22;;;-3.01;64.27
74893;BME280;63446;56.272;43.922;2023-01-15T01:07:14;101988.94;;;-3.02;64.37
74893;BME280;63446;56.272;43.922;2023-01-15T01:09:40;101972.63;;;-3.02;64.29
74893;BME280;63446;56.272;43.922;2023-01-15T01:12:06;101978.88;;;-3.05;64.24
74893;BME280;63446;56.272;43.922;2023-01-15T01:14:35;101973.69;;;-3.05;64.26
74893;BME280;63446;56.272;43.922;2023-01-15T01:17:02;101968.53;;;-3.05;64.26
74893;BME280;63446;56.272;43.922;2023-01-15T01:19:28;101972.06;;;-3.06;64.13
74893;BME280;63446;56.272;43.922;2023-01-15T01:21:54;101945.28;;;-3.14;64.11
74893;BME280;63446;56.272;43.922;2023-01-15T01:24:21;101958.44;;;-3.08;64.17
74893;BME280;63446;56.272;43.922;2023-01-15T01:26:48;101958.75;;;-3.11;64.23
74893;BME280;63446;56.272;43.922;2023-01-15T01:29:16;101951.13;;;-3.12;64.14
74893;BME280;63446;56.272;43.922;2023-01-15T01:31:43;101961.19;;;-3.09;64.10
74893;BME280;63446;56.272;43.922;2023-01-15T01:34:11;101954.66;;;-3.13;64.18
74893;BME280;63446;56.272;43.922;2023-01-15T01:36:39;101953.03;;;-3.14;64.09
74893;BME280;63446;56.272;43.922;2023-01-15T01:39:06;101958.22;;;-3.14;64.11
74893;BME280;63446;56.272;43.922;2023-01-15T01:41:33;101941.34;;;-3.18;64.08
74893;BME280;63446;56.272;43.922;2023-01-15T01:44:07;101956.44;;;-3.14;64.11
74893;BME280;63446;56.272;43.922;2023-01-15T01:46:35;101953.03;;;-3.14;64.10
74893;BME280;63446;56.272;43.922;2023-01-15T01:49:11;101951.53;;;-3.17;63.99
74893;BME280;63446;56.272;43.922;2023-01-15T01:51:48;101948.97;;;-3.17;63.87
74893;BME280;63446;56.272;43.922;2023-01-15T01:54:18;101939.69;;;-3.20;63.93
74893;BME280;63446;56.272;43.922;2023-01-15T01:56:48;101932.91;;;-3.21;64.01
74893;BME280;63446;56.272;43.922;2023-01-15T01:59:16;101939.69;;;-3.20;63.99
74893;BME280;63446;56.272;43.922;2023-01-15T02:01:46;101948.25;;;-3.19;64.01
74893;BME280;63446;56.272;43.922;2023-01-15T02:04:12;101936.44;;;-3.22;64.00
74893;BME280;63446;56.272;43.922;2023-01-15T02:06:41;101941.47;;;-3.20;63.99
74893;BME280;63446;56.272;43.922;2023-01-15T02:09:07;101934.53;;;-3.20;63.83
74893;BME280;63446;56.272;43.922;2023-01-15T02:11:33;101940.81;;;-3.22;63.96
74893;BME280;63446;56.272;43.922;2023-01-15T02:14:13;101941.91;;;-3.25;63.75
74893;BME280;63446;56.272;43.922;2023-01-15T02:17:14;101941.34;;;-3.28;63.94
74893;BME280;63446;56.272;43.922;2023-01-15T02:22:34;101937.41;;;-3.32;63.68
74893;BME280;63446;56.272;43.922;2023-01-15T02:25:20;101930.91;;;-3.36;63.74
74893;BME280;63446;56.272;43.922;2023-01-15T02:27:54;101930.09;;;-3.37;63.65
74893;BME280;63446;56.272;43.922;2023-01-15T02:30:32;101926.00;;;-3.39;63.70
74893;BME280;63446;56.272;43.922;2023-01-15T02:33:08;101935.53;;;-3.40;63.69
74893;BME280;63446;56.272;43.922;2023-01-15T02:35:47;101934.72;;;-3.40;63.58
74893;BME280;63446;56.272;43.922;2023-01-15T02:38:19;101934.97;;;-3.44;63.54
74893;BME280;63446;56.272;43.922;2023-01-15T02:40:52;101934.97;;;-3.44;63.64
74893;BME280;63446;56.272;43.922;2023-01-15T02:43:21;101931.72;;;-3.46;63.57
74893;BME280;63446;56.272;43.922;2023-01-15T02:45:52;101933.22;;;-3.43;63.63
74893;BME280;63446;56.272;43.922;2023-01-15T02:48:24;101934.03;;;-3.42;63.58
74893;BME280;63446;56.272;43.922;2023-01-15T02:51:00;101936.75;;;-3.44;63.48
74893;BME280;63446;56.272;43.922;2023-01-15T02:53:30;101938.66;;;-3.46;63.43
74893;BME280;63446;56.272;43.922;2023-01-15T02:56:02;101936.22;;;-3.48;63.44
74893;BME280;63446;56.272;43.922;2023-01-15T02:58:36;101937.97;;;-3.48;63.23
74893;BME280;63446;56.272;43.922;2023-01-15T03:01:18;101937.44;;;-3.52;63.33
74893;BME280;63446;56.272;43.922;2023-01-15T03:04:00;101919.63;;;-3.55;63.29
74893;BME280;63446;56.272;43.922;2023-01-15T03:09:31;101927.25;;;-3.63;63.42
74893;BME280;63446;56.272;43.922;2023-01-15T03:12:19;101929.84;;;-3.63;63.10
74893;BME280;63446;56.272;43.922;2023-01-15T03:15:07;101935.53;;;-3.69;63.18
74893;BME280;63446;56.272;43.922;2023-01-15T03:18:00;101932.13;;;-3.70;63.26
74893;BME280;63446;56.272;43.922;2023-01-15T03:20:30;101922.91;;;-3.72;63.14
74893;BME280;63446;56.272;43.922;2023-01-15T03:23:07;101929.00;;;-3.73;63.13
74893;BME280;63446;56.272;43.922;2023-01-15T03:25:41;101919.09;;;-3.78;63.00
74893;BME280;63446;56.272;43.922;2023-01-15T03:28:10;101926.72;;;-3.76;63.04
74893;BME280;63446;56.272;43.922;2023-01-15T03:30:38;101927.66;;;-3.77;62.97
74893;BME280;63446;56.272;43.922;2023-01-15T03:33:06;101932.00;;;-3.78;63.08
74893;BME280;63446;56.272;43.922;2023-01-15T03:36:06;101935.00;;;-3.82;62.94
74893;BME280;63446;56.272;43.922;2023-01-15T03:38:39;101940.88;;;-3.80;62.83
74893;BME280;63446;56.272;43.922;2023-01-15T03:42:01;101939.47;;;-3.84;62.73
74893;BME280;63446;56.272;43.922;2023-01-15T03:49:39;101945.88;;;-3.88;62.53
74893;BME280;63446;56.272;43.922;2023-01-15T03:52:27;101944.38;;;-3.91;62.65
74893;BME280;63446;56.272;43.922;2023-01-15T03:55:17;101929.16;;;-3.94;62.64
74893;BME280;63446;56.272;43.922;2023-01-15T03:58:01;101940.28;;;-3.94;62.63
74893;BME280;63446;56.272;43.922;2023-01-15T04:00:41;101940.00;;;-4.00;62.57
74893;BME280;63446;56.272;43.922;2023-01-15T04:03:10;101949.81;;;-3.94;62.63
74893;BME280;63446;56.272;43.922;2023-01-15T04:05:39;101950.63;;;-3.94;62.61
74893;BME280;63446;56.272;43.922;2023-01-15T04:08:07;101951.44;;;-3.93;62.62
74893;BME280;63446;56.272;43.922;2023-01-15T04:10:34;101956.34;;;-3.90;62.71
74893;BME280;63446;56.272;43.922;2023-01-15T04:13:05;101959.88;;;-3.91;62.63
74893;BME280;63446;56.272;43.922;2023-01-15T04:15:31;101954.03;;;-3.93;62.56
74893;BME280;63446;56.272;43.922;2023-01-15T04:17:56;101953.91;;;-3.91;62.53
74893;BME280;63446;56.272;43.922;2023-01-15T04:20:26;101950.50;;;-3.92;62.55
74893;BME280;63446;56.272;43.922;2023-01-15T04:22:53;101944.09;;;-3.98;62.55
74893;BME280;63446;56.272;43.922;2023-01-15T04:25:19;101953.59;;;-3.88;62.51
74893;BME280;63446;56.272;43.922;2023-01-15T04:27:45;101953.59;;;-3.88;62.53
74893;BME280;63446;56.272;43.922;2023-01-15T04:30:10;101955.13;;;-3.86;62.46
74893;BME280;63446;56.272;43.922;2023-01-15T04:32:37;101954.31;;;-3.86;62.44
74893;BME280;63446;56.272;43.922;2023-01-15T04:35:04;101954.44;;;-3.88;62.34
74893;BME280;63446;56.272;43.922;2023-01-15T04:37:30;101948.44;;;-3.88;62.34
74893;BME280;63446;56.272;43.922;2023-01-15T04:39:56;101951.97;;;-3.89;62.34
74893;BME280;63446;56.272;43.922;2023-01-15T04:42:21;101954.72;;;-3.91;62.19
74893;BME280;63446;56.272;43.922;2023-01-15T04:45:06;101964.91;;;-3.89;62.29
74893;BME280;63446;56.272;43.922;2023-01-15T04:47:33;101955.53;;;-3.90;62.36
74893;BME280;63446;56.272;43.922;2023-01-15T04:50:00;101967.47;;;-3.89;62.24
74893;BME280;63446;56.272;43.922;2023-01-15T04:52:25;101955.69;;;-3.92;62.29
74893;BME280;63446;56.272;43.922;2023-01-15T04:54:54;101952.41;;;-3.94;62.28
74893;BME280;63446;56.272;43.922;2023-01-15T04:57:20;101959.88;;;-3.91;62.16
74893;BME280;63446;56.272;43.922;2023-01-15T04:59:46;101954.56;;;-3.89;62.16
74893;BME280;63446;56.272;43.922;2023-01-15T05:02:12;101959.88;;;-3.91;62.07
74893;BME280;63446;56.272;43.922;2023-01-15T05:04:38;101955.78;;;-3.94;62.14
74893;BME280;63446;56.272;43.922;2023-01-15T05:07:04;101949.25;;;-3.98;62.14
74893;BME280;63446;56.272;43.922;2023-01-15T05:09:32;101946.41;;;-3.95;61.99
74893;BME280;63446;56.272;43.922;2023-01-15T05:11:58;101953.34;;;-3.95;62.07
74893;BME280;63446;56.272;43.922;2023-01-15T05:14:24;101964.50;;;-3.95;62.17
74893;BME280;63446;56.272;43.922;2023-01-15T05:16:50;101956.75;;;-3.95;61.91
74893;BME280;63446;56.272;43.922;2023-01-15T05:19:16;101953.47;;;-3.97;61.74
74893;BME280;63446;56.272;43.922;2023-01-15T05:21:43;101950.88;;;-3.97;61.78
74893;BME280;63446;56.272;43.922;2023-01-15T05:24:12;101945.72;;;-3.97;61.88
74893;BME280;63446;56.272;43.922;2023-01-15T05:26:39;101943.84;;;-3.95;61.94
74893;BME280;63446;56.272;43.922;2023-01-15T05:29:05;101944.66;;;-3.94;61.77
74893;BME280;63446;56.272;43.922;2023-01-15T05:31:31;101948.03;;;-3.94;61.77
74893;BME280;63446;56.272;43.922;2023-01-15T05:33:59;101942.06;;;-3.94;61.57
74893;BME280;63446;56.272;43.922;2023-01-15T05:36:28;101939.47;;;-3.94;61.71
74893;BME280;63446;56.272;43.922;2023-01-15T05:38:56;101948.75;;;-3.91;61.63
74893;BME280;63446;56.272;43.922;2023-01-15T05:41:26;101950.22;;;-3.89;61.56
74893;BME280;63446;56.272;43.922;2023-01-15T05:44:12;101960.44;;;-3.87;61.40
74893;BME280;63446;56.272;43.922;2023-01-15T05:46:39;101952.53;;;-3.86;61.37
74893;BME280;63446;56.272;43.922;2023-01-15T05:49:08;101956.75;;;-3.85;61.46
74893;BME280;63446;56.272;43.922;2023-01-15T05:51:34;101966.16;;;-3.84;61.46
74893;BME280;63446;56.272;43.922;2023-01-15T05:54:02;101965.31;;;-3.84;61.37
74893;BME280;63446;56.272;43.922;2023-01-15T05:56:29;101961.78;;;-3.83;61.32
74893;BME280;63446;56.272;43.922;2023-01-15T05:58:55;101957.56;;;-3.84;61.34
74893;BME280;63446;56.272;43.922;2023-01-15T06:01:21;101953.22;;;-3.84;61.34
74893;BME280;63446;56.272;43.922;2023-01-15T06:03:47;101963.16;;;-3.79;61.06
74893;BME280;63446;56.272;43.922;2023-01-15T06:06:16;101960.41;;;-3.78;61.19
74893;BME280;63446;56.272;43.922;2023-01-15T06:08:42;101959.47;;;-3.77;61.12
74893;BME280;63446;56.272;43.922;2023-01-15T06:11:10;101963.28;;;-3.81;61.19
74893;BME280;63446;56.272;43.922;2023-01-15T06:13:37;101957.56;;;-3.75;61.05
74893;BME280;63446;56.272;43.922;2023-01-15T06:16:04;101958.28;;;-3.73;61.05
74893;BME280;63446;56.272;43.922;2023-01-15T06:18:31;101964.25;;;-3.72;60.76
74893;BME280;63446;56.272;43.922;2023-01-15T06:21:03;101971.03;;;-3.71;60.75
74893;BME280;63446;56.272;43.922;2023-01-15T06:23:30;101982.19;;;-3.71;60.68
74893;BME280;63446;56.272;43.922;2023-01-15T06:26:01;101977.84;;;-3.70;60.70
74893;BME280;63446;56.272;43.922;2023-01-15T06:28:27;101977.84;;;-3.70;60.55
74893;BME280;63446;56.272;43.922;2023-01-15T06:30:53;101976.22;;;-3.71;60.64
74893;BME280;63446;56.272;43.922;2023-01-15T06:33:19;101980.31;;;-3.69;60.50
74893;BME280;63446;56.272;43.922;2023-01-15T06:35:45;101970.78;;;-3.68;60.43
74893;BME280;63446;56.272;43.922;2023-01-15T06:38:11;101970.63;;;-3.66;60.39
74893;BME280;63446;56.272;43.922;2023-01-15T06:40:38;101970.38;;;-3.63;60.47
74893;BME280;63446;56.272;43.922;2023-01-15T06:43:04;101966.69;;;-3.61;60.42
74893;BME280;63446;56.272;43.922;2023-01-15T06:45:50;101973.22;;;-3.57;60.38
74893;BME280;63446;56.272;43.922;2023-01-15T06:48:34;101983.28;;;-3.54;60.24
74893;BME280;63446;56.272;43.922;2023-01-15T06:51:00;101986.81;;;-3.55;60.18
74893;BME280;63446;56.272;43.922;2023-01-15T06:53:26;101977.44;;;-3.56;60.10
74893;BME280;63446;56.272;43.922;2023-01-15T06:55:52;101989.53;;;-3.56;60.06
74893;BME280;63446;56.272;43.922;2023-01-15T06:58:18;101982.75;;;-3.57;60.15
74893;BME280;63446;56.272;43.922;2023-01-15T07:00:46;101980.56;;;-3.62;59.90
74893;BME280;63446;56.272;43.922;2023-01-15T07:03:19;101987.06;;;-3.58;59.99
74893;BME280;63446;56.272;43.922;2023-01-15T07:05:45;101963.41;;;-3.63;59.88
74893;BME280;63446;56.272;43.922;2023-01-15T07:08:11;101980.03;;;-3.56;59.81
74893;BME280;63446;56.272;43.922;2023-01-15T07:10:37;101986.16;;;-3.57;59.82
74893;BME280;63446;56.272;43.922;2023-01-15T07:13:03;101994.84;;;-3.58;59.81
74893;BME280;63446;56.272;43.922;2023-01-15T07:15:28;101983.56;;;-3.57;59.73
74893;BME280;63446;56.272;43.922;2023-01-15T07:17:56;101989.41;;;-3.55;59.69
74893;BME280;63446;56.272;43.922;2023-01-15T07:20:23;101984.50;;;-3.58;59.79
74893;BME280;63446;56.272;43.922;2023-01-15T07:22:52;101991.97;;;-3.55;59.63
74893;BME280;63446;56.272;43.922;2023-01-15T07:25:18;101984.38;;;-3.56;59.69
74893;BME280;63446;56.272;43.922;2023-01-15T07:27:47;101995.66;;;-3.48;59.68
74893;BME280;63446;56.272;43.922;2023-01-15T07:30:13;101991.84;;;-3.44;59.71
74893;BME280;63446;56.272;43.922;2023-01-15T07:32:41;101986.41;;;-3.40;59.55
74893;BME280;63446;56.272;43.922;2023-01-15T07:35:08;101995.94;;;-3.41;59.68
74893;BME280;63446;56.272;43.922;2023-01-15T07:37:35;101991.59;;;-3.40;59.71
74893;BME280;63446;56.272;43.922;2023-01-15T07:40:02;102003.28;;;-3.36;59.59
74893;BME280;63446;56.272;43.922;2023-01-15T07:42:29;101994.56;;;-3.35;59.71
74893;BME280;63446;56.272;43.922;2023-01-15T07:45:14;102000.97;;;-3.30;59.58
74893;BME280;63446;56.272;43.922;2023-01-15T07:47:59;101988.03;;;-3.30;59.45
74893;BME280;63446;56.272;43.922;2023-01-15T07:50:43;102000.56;;;-3.25;59.44
74893;BME280;63446;56.272;43.922;2023-01-15T07:53:09;101995.22;;;-3.24;59.45
74893;BME280;63446;56.272;43.922;2023-01-15T07:55:35;101992.22;;;-3.19;59.56
74893;BME280;63446;56.272;43.922;2023-01-15T07:58:01;102001.38;;;-3.15;59.44
74893;BME280;63446;56.272;43.922;2023-01-15T08:00:28;101999.97;;;-3.09;59.49
74893;BME280;63446;56.272;43.922;2023-01-15T08:02:55;101993.72;;;-3.07;59.50
74893;BME280;63446;56.272;43.922;2023-01-15T08:05:21;101990.84;;;-3.04;59.35
74893;BME280;63446;56.272;43.922;2023-01-15T08:07:47;101987.03;;;-3.00;59.24
74893;BME280;63446;56.272;43.922;2023-01-15T08:10:14;101986.75;;;-2.97;59.22
74893;BME280;63446;56.272;43.922;2023-01-15T08:12:41;101984.31;;;-2.98;59.25
74893;BME280;63446;56.272;43.922;2023-01-15T08:15:25;101987.28;;;-2.93;59.33
74893;BME280;63446;56.272;43.922;2023-01-15T08:17:56;101993.16;;;-2.91;59.19
74893;BME280;63446;56.272;43.922;2023-01-15T08:20:24;101994.34;;;-2.85;59.27
74893;BME280;63446;56.272;43.922;2023-01-15T08:22:51;101997.34;;;-2.80;59.42
74893;BME280;63446;56.272;43.922;2023-01-15T08:25:20;101985.22;;;-2.80;59.21
74893;BME280;63446;56.272;43.922;2023-01-15T08:27:46;101984.38;;;-2.71;59.12
74893;BME280;63446;56.272;43.922;2023-01-15T08:30:17;101979.72;;;-2.67;59.20
74893;BME280;63446;56.272;43.922;2023-01-15T08:32:44;101987.88;;;-2.62;59.24
74893;BME280;63446;56.272;43.922;2023-01-15T08:35:10;101969.47;;;-2.59;59.12
74893;BME280;63446;56.272;43.922;2023-01-15T08:37:38;101977.34;;;-2.51;59.09
74893;BME280;63446;56.272;43.922;2023-01-15T08:40:05;101979.38;;;-2.44;59.00
74893;BME280;63446;56.272;43.922;2023-01-15T08:42:32;101969.53;;;-2.41;59.01
74893;BME280;63446;56.272;43.922;2023-01-15T08:44:58;101963.47;;;-2.32;58.88
74893;BME280;63446;56.272;43.922;2023-01-15T08:47:24;101970.81;;;-2.27;58.75
74893;BME280;63446;56.272;43.922;2023-01-15T08:49:50;101964.38;;;-2.23;58.65
74893;BME280;63446;56.272;43.922;2023-01-15T08:52:16;101970.63;;;-2.16;58.75
74893;BME280;63446;56.272;43.922;2023-01-15T08:54:43;101963.91;;;-2.09;58.61
74893;BME280;63446;56.272;43.922;2023-01-15T08:57:09;101963.44;;;-2.04;58.57
74893;BME280;63446;56.272;43.922;2023-01-15T08:59:36;101964.13;;;-2.02;58.60
74893;BME280;63446;56.272;43.922;2023-01-15T09:02:02;101969.03;;;-1.99;58.66
74893;BME280;63446;56.272;43.922;2023-01-15T09:04:29;101963.97;;;-2.01;58.47
74893;BME280;63446;56.272;43.922;2023-01-15T09:06:55;101959.75;;;-2.02;58.57
74893;BME280;63446;56.272;43.922;2023-01-15T09:09:21;101961.72;;;-2.04;58.54
74893;BME280;63446;56.272;43.922;2023-01-15T09:11:47;101958.97;;;-2.02;58.61
74893;BME280;63446;56.272;43.922;2023-01-15T09:14:14;101958.78;;;-2.01;58.74
74893;BME280;63446;56.272;43.922;2023-01-15T09:16:41;101960.28;;;-1.98;58.54
74893;BME280;63446;56.272;43.922;2023-01-15T09:19:10;101969.56;;;-1.95;58.67
74893;BME280;63446;56.272;43.922;2023-01-15T09:21:36;101965.72;;;-1.91;58.63
74893;BME280;63446;56.272;43.922;2023-01-15T09:24:02;101967.31;;;-1.90;58.50
74893;BME280;63446;56.272;43.922;2023-01-15T09:29:00;101963.47;;;-1.86;58.45
74893;BME280;63446;56.272;43.922;2023-01-15T09:31:28;101967.56;;;-1.84;58.48
74893;BME280;63446;56.272;43.922;2023-01-15T09:33:54;101956.22;;;-1.83;58.43
74893;BME280;63446;56.272;43.922;2023-01-15T09:36:30;101970.34;;;-1.77;58.39
74893;BME280;63446;56.272;43.922;2023-01-15T09:38:58;101958.09;;;-1.75;58.38
74893;BME280;63446;56.272;43.922;2023-01-15T09:41:26;101965.16;;;-1.77;58.26
74893;BME280;63446;56.272;43.922;2023-01-15T09:44:24;101959.88;;;-1.76;58.32
74893;BME280;63446;56.272;43.922;2023-01-15T09:49:39;101949.25;;;-1.82;58.18
74893;BME280;63446;56.272;43.922;2023-01-15T09:55:09;101953.13;;;-1.86;58.40
74893;BME280;63446;56.272;43.922;2023-01-15T09:57:39;101943.84;;;-1.89;58.35
74893;BME280;63446;56.272;43.922;2023-01-15T10:00:06;101939.00;;;-1.92;58.47
74893;BME280;63446;56.272;43.922;2023-01-15T10:02:50;101937.03;;;-1.90;58.40
74893;BME280;63446;56.272;43.922;2023-01-15T10:05:18;101936.88;;;-1.88;58.24
74893;BME280;63446;56.272;43.922;2023-01-15T10:08:19;101928.16;;;-1.87;58.48
74893;BME280;63446;56.272;43.922;2023-01-15T10:10:49;101923.78;;;-1.87;58.51
74893;BME280;63446;56.272;43.922;2023-01-15T10:15:47;101916.31;;;-1.90;58.44
74893;BME280;63446;56.272;43.922;2023-01-15T10:18:19;101920.53;;;-1.89;58.56
74893;BME280;63446;56.272;43.922;2023-01-15T10:24:04;101924.25;;;-1.91;58.43
74893;BME280;63446;56.272;43.922;2023-01-15T10:26:38;101916.47;;;-1.91;58.53
74893;BME280;63446;56.272;43.922;2023-01-15T10:42:33;101906.31;;;-1.85;58.80
74893;BME280;63446;56.272;43.922;2023-01-15T10:45:19;101916.38;;;-1.82;58.64
74893;BME280;63446;56.272;43.922;2023-01-15T10:47:59;101921.28;;;-1.79;58.68
74893;BME280;63446;56.272;43.922;2023-01-15T10:50:27;101918.00;;;-1.81;58.70
74893;BME280;63446;56.272;43.922;2023-01-15T10:55:39;101927.56;;;-1.81;58.74
74893;BME280;63446;56.272;43.922;2023-01-15T11:00:38;101920.91;;;-1.84;58.95
74893;BME280;63446;56.272;43.922;2023-01-15T11:03:09;101921.84;;;-1.85;58.88
74893;BME280;63446;56.272;43.922;2023-01-15T11:05:39;101925.41;;;-1.86;58.89
74893;BME280;63446;56.272;43.922;2023-01-15T11:08:10;101924.59;;;-1.86;58.85
74893;BME280;63446;56.272;43.922;2023-01-15T11:10:39;101922.19;;;-1.88;59.07
74893;BME280;63446;56.272;43.922;2023-01-15T11:13:15;101930.59;;;-1.86;59.09
74893;BME280;63446;56.272;43.922;2023-01-15T11:16:03;101922.19;;;-1.88;59.01
74893;BME280;63446;56.272;43.922;2023-01-15T11:18:47;101926.38;;;-1.87;59.00
74893;BME280;63446;56.272;43.922;2023-01-15T11:21:32;101912.63;;;-1.87;59.27
74893;BME280;63446;56.272;43.922;2023-01-15T11:23:58;101934.44;;;-1.90;59.29
74893;BME280;63446;56.272;43.922;2023-01-15T11:26:28;101937.34;;;-1.93;59.35
74893;BME280;63446;56.272;43.922;2023-01-15T11:28:57;101936.53;;;-1.93;59.56
74893;BME280;63446;56.272;43.922;2023-01-15T11:31:36;101927.28;;;-1.96;59.39
74893;BME280;63446;56.272;43.922;2023-01-15T11:34:05;101929.34;;;-2.00;59.49
74893;BME280;63446;56.272;43.922;2023-01-15T11:36:32;101935.19;;;-1.98;59.56
74893;BME280;63446;56.272;43.922;2023-01-15T11:38:59;101946.38;;;-1.97;59.67
74893;BME280;63446;56.272;43.922;2023-01-15T11:41:30;101946.38;;;-1.97;59.67
74893;BME280;63446;56.272;43.922;2023-01-15T11:44:18;101952.53;;;-1.98;59.71
74893;BME280;63446;56.272;43.922;2023-01-15T11:47:10;101938.88;;;-2.00;59.83
74893;BME280;63446;56.272;43.922;2023-01-15T11:49:55;101930.63;;;-2.04;59.94
74893;BME280;63446;56.272;43.922;2023-01-15T11:52:51;101939.50;;;-2.06;59.89
74893;BME280;63446;56.272;43.922;2023-01-15T11:55:20;101944.31;;;-2.11;59.81
74893;BME280;63446;56.272;43.922;2023-01-15T11:57:48;101938.59;;;-2.15;60.00
74893;BME280;63446;56.272;43.922;2023-01-15T12:00:22;101930.31;;;-2.18;60.22
74893;BME280;63446;56.272;43.922;2023-01-15T12:02:49;101935.25;;;-2.25;60.27
74893;BME280;63446;56.272;43.922;2023-01-15T12:05:18;101945.59;;;-2.25;60.29
74893;BME280;63446;56.272;43.922;2023-01-15T12:07:48;101937.31;;;-2.29;60.37
74893;BME280;63446;56.272;43.922;2023-01-15T12:10:20;101945.88;;;-2.28;60.49
74893;BME280;63446;56.272;43.922;2023-01-15T12:13:18;101946.84;;;-2.29;60.52
74893;BME280;63446;56.272;43.922;2023-01-15T12:26:38;101950.00;;;-2.35;60.68
74893;BME280;63446;56.272;43.922;2023-01-15T12:29:31;101952.88;;;-2.38;60.71
74893;BME280;63446;56.272;43.922;2023-01-15T12:32:21;101953.84;;;-2.39;60.83
74893;BME280;63446;56.272;43.922;2023-01-15T12:37:27;101950.59;;;-2.41;60.90
74893;BME280;63446;56.272;43.922;2023-01-15T12:42:24;101953.19;;;-2.41;61.09
74893;BME280;63446;56.272;43.922;2023-01-15T12:45:20;101965.16;;;-2.40;61.20
74893;BME280;63446;56.272;43.922;2023-01-15T12:48:13;101967.06;;;-2.42;61.09
74893;BME280;63446;56.272;43.922;2023-01-15T12:50:44;101966.25;;;-2.43;60.96
74893;BME280;63446;56.272;43.922;2023-01-15T12:53:35;101963.16;;;-2.47;61.09
74893;BME280;63446;56.272;43.922;2023-01-15T13:01:31;101958.56;;;-2.53;61.15
74893;BME280;63446;56.272;43.922;2023-01-15T13:06:27;101956.91;;;-2.54;61.35
74893;BME280;63446;56.272;43.922;2023-01-15T13:11:36;101956.25;;;-2.56;61.36
74893;BME280;63446;56.272;43.922;2023-01-15T13:14:01;101962.38;;;-2.57;61.44
74893;BME280;63446;56.272;43.922;2023-01-15T13:16:59;101970.16;;;-2.57;61.46
74893;BME280;63446;56.272;43.922;2023-01-15T13:19:34;101964.28;;;-2.59;61.52
74893;BME280;63446;56.272;43.922;2023-01-15T13:22:11;101974.41;;;-2.65;61.58
74893;BME280;63446;56.272;43.922;2023-01-15T13:30:06;101976.97;;;-2.65;61.79
74893;BME280;63446;56.272;43.922;2023-01-15T13:32:47;101982.31;;;-2.67;61.79
74893;BME280;63446;56.272;43.922;2023-01-15T13:35:33;101974.41;;;-2.65;61.84
74893;BME280;63446;56.272;43.922;2023-01-15T13:38:03;101981.50;;;-2.67;61.58
74893;BME280;63446;56.272;43.922;2023-01-15T13:40:40;101983.28;;;-2.68;61.88
74893;BME280;63446;56.272;43.922;2023-01-15T13:43:26;101981.94;;;-2.72;61.80
74893;BME280;63446;56.272;43.922;2023-01-15T13:45:55;101984.63;;;-2.74;61.96
74893;BME280;63446;56.272;43.922;2023-01-15T13:48:33;101967.66;;;-2.76;61.79
74893;BME280;63446;56.272;43.922;2023-01-15T13:51:02;101979.09;;;-2.79;61.77
74893;BME280;63446;56.272;43.922;2023-01-15T13:53:33;101967.22;;;-2.81;62.08
74893;BME280;63446;56.272;43.922;2023-01-15T13:56:12;101977.47;;;-2.80;62.04
74893;BME280;63446;56.272;43.922;2023-01-15T13:58:57;101957.84;;;-2.82;61.87
74893;BME280;63446;56.272;43.922;2023-01-15T14:01:35;101974.88;;;-2.80;61.91
74893;BME280;63446;56.272;43.922;2023-01-15T14:04:13;101977.47;;;-2.80;62.11
74893;BME280;63446;56.272;43.922;2023-01-15T14:06:42;101979.91;;;-2.78;62.06
74893;BME280;63446;56.272;43.922;2023-01-15T14:09:11;101981.81;;;-2.80;62.07
74893;BME280;63446;56.272;43.922;2023-01-15T14:11:40;101985.34;;;-2.81;62.10
74893;BME280;63446;56.272;43.922;2023-01-15T14:20:19;101979.78;;;-2.77;61.88
74893;BME280;63446;56.272;43.922;2023-01-15T14:23:15;101976.50;;;-2.79;62.09